sensor_id;sensor_type;location;lat;lon;timestamp;pressure;altitude;pressure_sealevel;temperature;humidity
36964;BME280;22878;48.616;35.326;2023-08-01T04:42:55;100419.85;;;25.50;100.00
36964;BME280;22878;48.616;35.326;2023-08-01T04:45:21;100417.38;;;25.44;100.00
36964;BME280;22878;48.616;35.326;2023-08-01T04:47:47;100416.99;;;25.61;100.00
36964;BME280;22878;48.616;35.326;2023-08-01T04:50:12;100416.73;;;26.49;100.00
36964;BME280;22878;48.616;35.326;2023-08-01T04:52:38;100412.36;;;27.49;100.00
36964;BME280;22878;48.616;35.326;2023-08-01T04:55:04;100411.90;;;28.14;100.00
36964;BME280;22878;48.616;35.326;2023-08-01T04:57:30;100416.66;;;28.71;100.00
36964;BME280;22878;48.616;35.326;2023-08-01T04:59:56;100415.84;;;29.65;100.00
36964;BME280;22878;48.616;35.326;2023-08-01T05:02:21;100417.59;;;30.65;100.00
36964;BME280;22878;48.616;35.326;2023-08-01T05:04:47;100418.23;;;31.31;100.00
36964;BME280;22878;48.616;35.326;2023-08-01T05:07:12;100420.59;;;31.04;100.00
36964;BME280;22878;48.616;35.326;2023-08-01T05:09:38;100424.15;;;30.31;100.00
36964;BME280;22878;48.616;35.326;2023-08-01T05:12:03;100427.66;;;29.63;100.00
36964;BME280;22878;48.616;35.326;2023-08-01T05:14:29;100432.11;;;29.36;100.00
36964;BME280;22878;48.616;35.326;2023-08-01T05:16:55;100438.09;;;29.07;100.00
36964;BME280;22878;48.616;35.326;2023-08-01T05:19:20;100437.31;;;28.69;100.00
36964;BME280;22878;48.616;35.326;2023-08-01T05:21:46;100439.48;;;28.28;100.00
36964;BME280;22878;48.616;35.326;2023-08-01T05:24:12;100437.39;;;27.97;100.00
36964;BME280;22878;48.616;35.326;2023-08-01T05:26:37;100438.51;;;27.73;100.00
36964;BME280;22878;48.616;35.326;2023-08-01T05:29:02;100438.14;;;27.48;100.00
36964;BME280;22878;48.616;35.326;2023-08-01T05:31:29;100439.98;;;27.35;100.00
36964;BME280;22878;48.616;35.326;2023-08-01T05:33:54;100438.60;;;27.32;100.00
36964;BME280;22878;48.616;35.326;2023-08-01T05:36:20;100436.52;;;27.23;100.00
36964;BME280;22878;48.616;35.326;2023-08-01T05:38:45;100444.91;;;27.07;100.00
36964;BME280;22878;48.616;35.326;2023-08-01T05:41:11;100447.52;;;27.18;100.00
36964;BME280;22878;48.616;35.326;2023-08-01T05:43:36;100447.00;;;27.27;100.00
36964;BME280;22878;48.616;35.326;2023-08-01T05:46:02;100448.79;;;27.45;100.00
36964;BME280;22878;48.616;35.326;2023-08-01T05:48:27;100449.58;;;27.73;100.00
36964;BME280;22878;48.616;35.326;2023-08-01T05:50:53;100445.36;;;28.11;100.00
36964;BME280;22878;48.616;35.326;2023-08-01T05:53:21;100447.75;;;28.40;100.00
36964;BME280;22878;48.616;35.326;2023-08-01T05:55:46;100446.48;;;28.62;100.00
36964;BME280;22878;48.616;35.326;2023-08-01T05:58:12;100446.93;;;28.99;100.00
36964;BME280;22878;48.616;35.326;2023-08-01T06:00:38;100444.37;;;29.52;100.00
36964;BME280;22878;48.616;35.326;2023-08-01T06:03:03;100437.92;;;30.95;100.00
36964;BME280;22878;48.616;35.326;2023-08-01T06:05:29;100432.18;;;31.83;98.44
36964;BME280;22878;48.616;35.326;2023-08-01T06:07:55;100429.79;;;31.72;96.32
36964;BME280;22878;48.616;35.326;2023-08-01T06:10:21;100427.58;;;31.92;98.40
36964;BME280;22878;48.616;35.326;2023-08-01T06:12:47;100430.47;;;32.49;91.37
36964;BME280;22878;48.616;35.326;2023-08-01T06:15:13;100428.95;;;32.40;85.45
36964;BME280;22878;48.616;35.326;2023-08-01T06:17:38;100425.27;;;32.14;84.15
36964;BME280;22878;48.616;35.326;2023-08-01T06:20:04;100425.73;;;32.43;83.70
36964;BME280;22878;48.616;35.326;2023-08-01T06:25:34;100426.93;;;32.74;79.92
36964;BME280;22878;48.616;35.326;2023-08-01T06:27:59;100425.92;;;32.94;80.45
36964;BME280;22878;48.616;35.326;2023-08-01T06:30:25;100424.23;;;33.22;77.75
36964;BME280;22878;48.616;35.326;2023-08-01T06:32:51;100422.36;;;33.65;78.36
36964;BME280;22878;48.616;35.326;2023-08-01T06:35:16;100420.91;;;34.30;73.44
36964;BME280;22878;48.616;35.326;2023-08-01T06:37:42;100423.39;;;34.74;72.28
36964;BME280;22878;48.616;35.326;2023-08-01T06:40:08;100418.05;;;35.56;73.37
36964;BME280;22878;48.616;35.326;2023-08-01T06:42:33;100418.05;;;36.65;68.95
36964;BME280;22878;48.616;35.326;2023-08-01T06:44:59;100420.99;;;37.49;62.53
36964;BME280;22878;48.616;35.326;2023-08-01T06:47:24;100424.86;;;38.05;59.78
36964;BME280;22878;48.616;35.326;2023-08-01T06:49:50;100428.27;;;38.13;57.34
36964;BME280;22878;48.616;35.326;2023-08-01T06:52:15;100427.06;;;38.32;56.84
36964;BME280;22878;48.616;35.326;2023-08-01T06:54:41;100425.35;;;38.96;54.38
36964;BME280;22878;48.616;35.326;2023-08-01T06:57:07;100424.59;;;39.25;52.19
36964;BME280;22878;48.616;35.326;2023-08-01T06:59:32;100421.80;;;39.73;51.57
36964;BME280;22878;48.616;35.326;2023-08-01T07:02:00;100420.47;;;40.30;50.39
36964;BME280;22878;48.616;35.326;2023-08-01T07:04:28;100421.73;;;40.40;49.46
36964;BME280;22878;48.616;35.326;2023-08-01T07:06:54;100413.42;;;40.14;48.42
36964;BME280;22878;48.616;35.326;2023-08-01T07:09:19;100413.38;;;40.26;48.05
36964;BME280;22878;48.616;35.326;2023-08-01T07:11:45;100409.70;;;40.60;47.48
36964;BME280;22878;48.616;35.326;2023-08-01T07:14:10;100408.67;;;40.97;45.97
36964;BME280;22878;48.616;35.326;2023-08-01T07:16:36;100412.23;;;41.25;44.91
36964;BME280;22878;48.616;35.326;2023-08-01T07:19:01;100414.36;;;40.40;43.61
36964;BME280;22878;48.616;35.326;2023-08-01T07:21:27;100416.52;;;39.41;44.84
36964;BME280;22878;48.616;35.326;2023-08-01T07:23:54;100423.79;;;38.38;46.19
36964;BME280;22878;48.616;35.326;2023-08-01T07:26:20;100425.27;;;37.17;48.31
36964;BME280;22878;48.616;35.326;2023-08-01T07:28:45;100426.08;;;36.63;50.65
36964;BME280;22878;48.616;35.326;2023-08-01T07:31:11;100427.83;;;36.55;52.59
36964;BME280;22878;48.616;35.326;2023-08-01T07:33:36;100428.14;;;36.61;52.15
36964;BME280;22878;48.616;35.326;2023-08-01T07:36:02;100429.55;;;36.32;52.57
36964;BME280;22878;48.616;35.326;2023-08-01T07:38:28;100424.36;;;36.21;54.14
36964;BME280;22878;48.616;35.326;2023-08-01T07:40:54;100422.15;;;36.47;53.78
36964;BME280;22878;48.616;35.326;2023-08-01T07:43:20;100420.05;;;36.60;52.93
36964;BME280;22878;48.616;35.326;2023-08-01T07:45:48;100418.39;;;36.77;51.61
36964;BME280;22878;48.616;35.326;2023-08-01T07:48:15;100418.27;;;37.15;50.19
36964;BME280;22878;48.616;35.326;2023-08-01T07:50:41;100412.96;;;37.54;49.18
36964;BME280;22878;48.616;35.326;2023-08-01T07:53:06;100418.23;;;38.22;48.81
36964;BME280;22878;48.616;35.326;2023-08-01T07:55:35;100415.93;;;38.42;44.81
36964;BME280;22878;48.616;35.326;2023-08-01T07:58:01;100412.60;;;38.15;44.73
36964;BME280;22878;48.616;35.326;2023-08-01T08:00:26;100402.46;;;38.88;45.09
36964;BME280;22878;48.616;35.326;2023-08-01T08:02:53;100403.41;;;40.06;44.85
36964;BME280;22878;48.616;35.326;2023-08-01T08:05:18;100403.02;;;41.30;43.16
36964;BME280;22878;48.616;35.326;2023-08-01T08:07:44;100405.58;;;42.03;42.03
36964;BME280;22878;48.616;35.326;2023-08-01T08:10:09;100402.56;;;42.81;39.28
36964;BME280;22878;48.616;35.326;2023-08-01T08:12:35;100396.98;;;43.66;37.47
36964;BME280;22878;48.616;35.326;2023-08-01T08:15:01;100400.55;;;43.70;36.36
36964;BME280;22878;48.616;35.326;2023-08-01T08:17:26;100405.09;;;43.98;35.95
36964;BME280;22878;48.616;35.326;2023-08-01T08:19:52;100404.23;;;44.37;34.30
36964;BME280;22878;48.616;35.326;2023-08-01T08:22:17;100403.81;;;44.36;33.96
36964;BME280;22878;48.616;35.326;2023-08-01T08:24:46;100398.45;;;43.72;34.16
36964;BME280;22878;48.616;35.326;2023-08-01T08:27:11;100402.44;;;43.53;35.25
36964;BME280;22878;48.616;35.326;2023-08-01T08:29:38;100399.23;;;43.81;34.09
36964;BME280;22878;48.616;35.326;2023-08-01T08:32:03;100399.33;;;43.76;32.80
36964;BME280;22878;48.616;35.326;2023-08-01T08:34:29;100396.52;;;43.56;32.24
36964;BME280;22878;48.616;35.326;2023-08-01T08:36:54;100399.88;;;43.43;31.54
36964;BME280;22878;48.616;35.326;2023-08-01T08:39:20;100395.98;;;44.14;32.38
36964;BME280;22878;48.616;35.326;2023-08-01T08:41:47;100394.44;;;44.96;31.44
36964;BME280;22878;48.616;35.326;2023-08-01T08:44:17;100385.14;;;45.14;30.39
36964;BME280;22878;48.616;35.326;2023-08-01T08:46:44;100390.04;;;45.08;29.88
36964;BME280;22878;48.616;35.326;2023-08-01T08:49:13;100383.63;;;45.02;29.54
36964;BME280;22878;48.616;35.326;2023-08-01T08:51:41;100378.54;;;45.02;29.55
36964;BME280;22878;48.616;35.326;2023-08-01T08:54:09;100378.39;;;44.14;29.85
36964;BME280;22878;48.616;35.326;2023-08-01T08:56:36;100378.77;;;43.43;31.13
36964;BME280;22878;48.616;35.326;2023-08-01T08:59:04;100373.98;;;43.65;32.36
36964;BME280;22878;48.616;35.326;2023-08-01T09:01:31;100373.86;;;44.21;31.92
36964;BME280;22878;48.616;35.326;2023-08-01T09:03:57;100377.63;;;43.68;31.45
36964;BME280;22878;48.616;35.326;2023-08-01T09:06:25;100380.62;;;42.67;32.53
36964;BME280;22878;48.616;35.326;2023-08-01T09:09:02;100381.21;;;42.44;33.24
36964;BME280;22878;48.616;35.326;2023-08-01T09:11:28;100375.78;;;42.76;32.71
36964;BME280;22878;48.616;35.326;2023-08-01T09:13:53;100372.86;;;43.17;32.48
36964;BME280;22878;48.616;35.326;2023-08-01T09:16:19;100376.65;;;43.12;31.88
36964;BME280;22878;48.616;35.326;2023-08-01T09:18:49;100377.66;;;42.42;32.19
36964;BME280;22878;48.616;35.326;2023-08-01T09:21:18;100376.43;;;41.86;33.04
36964;BME280;22878;48.616;35.326;2023-08-01T09:23:44;100376.78;;;41.60;33.34
36964;BME280;22878;48.616;35.326;2023-08-01T09:26:17;100373.91;;;41.54;33.94
36964;BME280;22878;48.616;35.326;2023-08-01T09:28:42;100370.07;;;41.28;33.50
36964;BME280;22878;48.616;35.326;2023-08-01T09:31:10;100364.67;;;40.97;34.97
36964;BME280;22878;48.616;35.326;2023-08-01T09:33:42;100358.70;;;41.27;35.06
36964;BME280;22878;48.616;35.326;2023-08-01T09:36:08;100358.94;;;41.21;34.33
36964;BME280;22878;48.616;35.326;2023-08-01T09:38:35;100357.38;;;41.35;34.35
36964;BME280;22878;48.616;35.326;2023-08-01T09:41:01;100358.38;;;41.70;33.29
36964;BME280;22878;48.616;35.326;2023-08-01T09:43:34;100360.09;;;41.76;32.01
36964;BME280;22878;48.616;35.326;2023-08-01T09:46:03;100354.50;;;41.09;31.96
36964;BME280;22878;48.616;35.326;2023-08-01T09:48:29;100349.70;;;40.80;32.36
36964;BME280;22878;48.616;35.326;2023-08-01T09:51:12;100349.59;;;40.31;32.77
36964;BME280;22878;48.616;35.326;2023-08-01T09:53:50;100342.84;;;40.32;33.09
36964;BME280;22878;48.616;35.326;2023-08-01T09:56:22;100337.68;;;40.71;33.78
36964;BME280;22878;48.616;35.326;2023-08-01T09:58:48;100332.32;;;41.15;32.62
36964;BME280;22878;48.616;35.326;2023-08-01T10:01:15;100330.48;;;41.16;32.09
36964;BME280;22878;48.616;35.326;2023-08-01T10:03:45;100322.95;;;40.72;32.23
36964;BME280;22878;48.616;35.326;2023-08-01T10:06:23;100319.45;;;41.02;32.79
36964;BME280;22878;48.616;35.326;2023-08-01T10:08:51;100317.44;;;40.49;32.07
36964;BME280;22878;48.616;35.326;2023-08-01T10:11:19;100312.98;;;39.60;32.94
36964;BME280;22878;48.616;35.326;2023-08-01T10:13:45;100311.92;;;39.05;33.89
36964;BME280;22878;48.616;35.326;2023-08-01T10:16:11;100308.56;;;38.61;34.73
36964;BME280;22878;48.616;35.326;2023-08-01T10:18:38;100305.70;;;38.20;35.37
36964;BME280;22878;48.616;35.326;2023-08-01T10:21:12;100303.30;;;38.11;36.42
36964;BME280;22878;48.616;35.326;2023-08-01T10:23:39;100297.41;;;38.38;35.90
36964;BME280;22878;48.616;35.326;2023-08-01T10:26:06;100298.65;;;38.59;36.00
36964;BME280;22878;48.616;35.326;2023-08-01T10:28:34;100295.89;;;38.74;35.97
36964;BME280;22878;48.616;35.326;2023-08-01T10:33:37;100297.54;;;38.09;34.41
36964;BME280;22878;48.616;35.326;2023-08-01T10:36:32;100303.12;;;37.45;35.14
36964;BME280;22878;48.616;35.326;2023-08-01T10:39:00;100309.20;;;37.28;37.23
36964;BME280;22878;48.616;35.326;2023-08-01T10:41:33;100314.65;;;37.18;36.75
36964;BME280;22878;48.616;35.326;2023-08-01T10:44:10;100316.27;;;36.89;36.04
36964;BME280;22878;48.616;35.326;2023-08-01T10:49:15;100309.36;;;36.73;37.37
36964;BME280;22878;48.616;35.326;2023-08-01T10:51:42;100309.14;;;36.80;37.84
36964;BME280;22878;48.616;35.326;2023-08-01T10:54:26;100309.77;;;36.67;36.14
36964;BME280;22878;48.616;35.326;2023-08-01T10:56:54;100309.99;;;36.04;36.15
36964;BME280;22878;48.616;35.326;2023-08-01T10:59:21;100315.64;;;35.79;39.12
36964;BME280;22878;48.616;35.326;2023-08-01T11:01:52;100318.63;;;35.77;37.91
36964;BME280;22878;48.616;35.326;2023-08-01T11:04:20;100321.42;;;35.81;39.51
36964;BME280;22878;48.616;35.326;2023-08-01T11:06:47;100322.66;;;35.70;38.49
36964;BME280;22878;48.616;35.326;2023-08-01T11:09:24;100321.07;;;35.53;40.86
36964;BME280;22878;48.616;35.326;2023-08-01T11:11:53;100325.60;;;35.44;41.72
36964;BME280;22878;48.616;35.326;2023-08-01T11:14:20;100320.63;;;35.28;40.15
36964;BME280;22878;48.616;35.326;2023-08-01T11:16:48;100322.41;;;35.17;43.06
36964;BME280;22878;48.616;35.326;2023-08-01T11:19:28;100319.54;;;35.05;43.88
36964;BME280;22878;48.616;35.326;2023-08-01T11:21:54;100317.02;;;34.84;44.70
36964;BME280;22878;48.616;35.326;2023-08-01T11:24:24;100319.92;;;34.60;45.64
36964;BME280;22878;48.616;35.326;2023-08-01T11:26:52;100322.30;;;34.41;46.14
36964;BME280;22878;48.616;35.326;2023-08-01T11:29:19;100321.02;;;34.29;47.88
36964;BME280;22878;48.616;35.326;2023-08-01T11:31:55;100322.59;;;34.13;48.86
36964;BME280;22878;48.616;35.326;2023-08-01T11:34:21;100327.05;;;33.86;49.84
36964;BME280;22878;48.616;35.326;2023-08-01T11:36:47;100335.35;;;33.52;50.71
36964;BME280;22878;48.616;35.326;2023-08-01T11:39:14;100337.03;;;33.24;51.46
36964;BME280;22878;48.616;35.326;2023-08-01T11:41:40;100338.36;;;33.04;53.78
36964;BME280;22878;48.616;35.326;2023-08-01T11:44:07;100338.30;;;32.94;55.74
36964;BME280;22878;48.616;35.326;2023-08-01T11:46:35;100335.27;;;32.89;58.49
36964;BME280;22878;48.616;35.326;2023-08-01T11:49:05;100330.45;;;32.80;61.38
36964;BME280;22878;48.616;35.326;2023-08-01T11:51:38;100329.21;;;32.64;64.92
36964;BME280;22878;48.616;35.326;2023-08-01T11:54:04;100328.52;;;32.48;68.35
36964;BME280;22878;48.616;35.326;2023-08-01T11:56:31;100326.73;;;32.41;71.49
36964;BME280;22878;48.616;35.326;2023-08-01T11:58:56;100325.27;;;32.30;74.13
36964;BME280;22878;48.616;35.326;2023-08-01T12:01:22;100319.25;;;32.13;76.09
36964;BME280;22878;48.616;35.326;2023-08-01T12:03:50;100315.73;;;31.96;74.58
36964;BME280;22878;48.616;35.326;2023-08-01T12:06:17;100307.81;;;31.80;73.59
36964;BME280;22878;48.616;35.326;2023-08-01T12:08:45;100306.92;;;31.74;73.26
36964;BME280;22878;48.616;35.326;2023-08-01T12:11:24;100298.61;;;31.69;70.38
36964;BME280;22878;48.616;35.326;2023-08-01T12:16:38;100293.20;;;31.49;69.19
36964;BME280;22878;48.616;35.326;2023-08-01T12:19:04;100290.65;;;31.41;68.59
36964;BME280;22878;48.616;35.326;2023-08-01T12:21:33;100285.95;;;31.38;69.08
36964;BME280;22878;48.616;35.326;2023-08-01T12:23:59;100283.33;;;31.41;69.19
36964;BME280;22878;48.616;35.326;2023-08-01T12:26:25;100282.17;;;31.45;67.09
36964;BME280;22878;48.616;35.326;2023-08-01T12:28:51;100282.79;;;31.37;65.65
36964;BME280;22878;48.616;35.326;2023-08-01T12:31:17;100278.84;;;31.28;65.71
36964;BME280;22878;48.616;35.326;2023-08-01T12:33:46;100282.76;;;31.27;65.85
36964;BME280;22878;48.616;35.326;2023-08-01T12:36:13;100279.17;;;31.28;65.33
36964;BME280;22878;48.616;35.326;2023-08-01T12:38:39;100274.75;;;31.36;65.27
36964;BME280;22878;48.616;35.326;2023-08-01T12:41:06;100271.69;;;31.43;64.67
36964;BME280;22878;48.616;35.326;2023-08-01T12:43:31;100269.93;;;31.52;64.67
36964;BME280;22878;48.616;35.326;2023-08-01T12:45:57;100272.45;;;31.65;64.61
36964;BME280;22878;48.616;35.326;2023-08-01T12:48:27;100268.84;;;31.76;64.16
36964;BME280;22878;48.616;35.326;2023-08-01T12:50:53;100271.32;;;31.84;64.01
36964;BME280;22878;48.616;35.326;2023-08-01T12:53:20;100271.79;;;31.95;65.12
36964;BME280;22878;48.616;35.326;2023-08-01T12:55:47;100269.84;;;31.97;63.33
36964;BME280;22878;48.616;35.326;2023-08-01T12:58:13;100270.47;;;31.93;62.52
36964;BME280;22878;48.616;35.326;2023-08-01T13:00:40;100273.55;;;31.94;62.82
36964;BME280;22878;48.616;35.326;2023-08-01T13:03:06;100269.91;;;31.99;62.61
36964;BME280;22878;48.616;35.326;2023-08-01T13:05:35;100267.56;;;32.02;61.41
36964;BME280;22878;48.616;35.326;2023-08-01T13:08:01;100265.94;;;31.97;61.18
36964;BME280;22878;48.616;35.326;2023-08-01T13:10:30;100265.68;;;31.92;61.44
36964;BME280;22878;48.616;35.326;2023-08-01T13:12:57;100264.95;;;31.94;61.84
36964;BME280;22878;48.616;35.326;2023-08-01T13:15:23;100265.55;;;31.97;62.15
36964;BME280;22878;48.616;35.326;2023-08-01T13:17:49;100269.59;;;32.00;61.65
36964;BME280;22878;48.616;35.326;2023-08-01T13:20:14;100271.02;;;32.00;62.27
36964;BME280;22878;48.616;35.326;2023-08-01T13:22:40;100266.63;;;32.00;63.15
36964;BME280;22878;48.616;35.326;2023-08-01T13:25:05;100262.29;;;31.98;63.65
36964;BME280;22878;48.616;35.326;2023-08-01T13:27:34;100256.25;;;31.87;63.57
36964;BME280;22878;48.616;35.326;2023-08-01T13:30:00;100251.69;;;31.80;64.92
36964;BME280;22878;48.616;35.326;2023-08-01T13:32:25;100252.25;;;31.79;64.96
36964;BME280;22878;48.616;35.326;2023-08-01T13:34:50;100251.63;;;31.78;65.16
36964;BME280;22878;48.616;35.326;2023-08-01T13:37:16;100253.45;;;31.71;66.16
36964;BME280;22878;48.616;35.326;2023-08-01T13:39:42;100256.03;;;31.66;66.42
36964;BME280;22878;48.616;35.326;2023-08-01T13:42:07;100255.04;;;31.63;67.36
36964;BME280;22878;48.616;35.326;2023-08-01T13:44:33;100253.11;;;31.63;68.17
36964;BME280;22878;48.616;35.326;2023-08-01T13:46:58;100250.50;;;31.63;69.55
36964;BME280;22878;48.616;35.326;2023-08-01T13:49:24;100246.12;;;31.62;69.64
36964;BME280;22878;48.616;35.326;2023-08-01T13:51:49;100242.92;;;31.64;69.83
36964;BME280;22878;48.616;35.326;2023-08-01T13:54:15;100238.64;;;31.63;70.18
36964;BME280;22878;48.616;35.326;2023-08-01T13:56:40;100238.11;;;31.60;70.91
36964;BME280;22878;48.616;35.326;2023-08-01T13:59:06;100231.71;;;31.54;72.60
36964;BME280;22878;48.616;35.326;2023-08-01T14:01:31;100225.59;;;31.44;71.95
36964;BME280;22878;48.616;35.326;2023-08-01T14:03:57;100210.36;;;31.39;73.91
36964;BME280;22878;48.616;35.326;2023-08-01T14:06:23;100209.38;;;31.31;74.35
36964;BME280;22878;48.616;35.326;2023-08-01T14:08:48;100210.59;;;31.19;73.50
36964;BME280;22878;48.616;35.326;2023-08-01T14:11:14;100206.30;;;31.07;72.68
36964;BME280;22878;48.616;35.326;2023-08-01T14:13:39;100202.05;;;31.01;74.31
36964;BME280;22878;48.616;35.326;2023-08-01T14:16:05;100195.83;;;30.93;74.83
36964;BME280;22878;48.616;35.326;2023-08-01T14:18:30;100198.45;;;30.84;74.46
36964;BME280;22878;48.616;35.326;2023-08-01T14:20:56;100198.79;;;30.79;76.37
36964;BME280;22878;48.616;35.326;2023-08-01T14:23:22;100201.64;;;30.77;76.40
36964;BME280;22878;48.616;35.326;2023-08-01T14:25:48;100198.54;;;30.76;77.60
36964;BME280;22878;48.616;35.326;2023-08-01T14:28:13;100195.14;;;30.72;79.62
36964;BME280;22878;48.616;35.326;2023-08-01T14:30:39;100195.88;;;30.68;81.74
36964;BME280;22878;48.616;35.326;2023-08-01T14:33:06;100197.51;;;30.64;82.36
36964;BME280;22878;48.616;35.326;2023-08-01T14:35:34;100194.65;;;30.61;81.82
36964;BME280;22878;48.616;35.326;2023-08-01T14:37:59;100193.16;;;30.60;82.13
36964;BME280;22878;48.616;35.326;2023-08-01T14:40:25;100191.45;;;30.52;80.94
36964;BME280;22878;48.616;35.326;2023-08-01T14:42:51;100187.67;;;30.44;80.56
36964;BME280;22878;48.616;35.326;2023-08-01T14:45:17;100179.69;;;30.37;80.92
36964;BME280;22878;48.616;35.326;2023-08-01T14:47:44;100180.68;;;30.30;82.00
36964;BME280;22878;48.616;35.326;2023-08-01T14:50:11;100176.97;;;30.26;83.22
36964;BME280;22878;48.616;35.326;2023-08-01T14:52:37;100170.39;;;30.21;84.81
36964;BME280;22878;48.616;35.326;2023-08-01T14:55:03;100169.43;;;30.16;84.90
36964;BME280;22878;48.616;35.326;2023-08-01T14:57:29;100171.30;;;30.12;85.85
36964;BME280;22878;48.616;35.326;2023-08-01T14:59:55;100173.50;;;30.12;87.24
36964;BME280;22878;48.616;35.326;2023-08-01T15:02:21;100178.27;;;30.13;86.70
36964;BME280;22878;48.616;35.326;2023-08-01T15:04:51;100180.41;;;30.14;87.13
36964;BME280;22878;48.616;35.326;2023-08-01T15:07:17;100184.12;;;30.19;88.21
36964;BME280;22878;48.616;35.326;2023-08-01T15:09:43;100189.69;;;30.24;89.08
36964;BME280;22878;48.616;35.326;2023-08-01T15:12:09;100196.90;;;30.25;88.44
36964;BME280;22878;48.616;35.326;2023-08-01T15:14:36;100202.45;;;30.29;88.86
36964;BME280;22878;48.616;35.326;2023-08-01T15:17:03;100205.08;;;30.29;88.55
36964;BME280;22878;48.616;35.326;2023-08-01T15:19:28;100207.87;;;30.25;89.13
36964;BME280;22878;48.616;35.326;2023-08-01T15:21:54;100208.49;;;30.26;90.48
36964;BME280;22878;48.616;35.326;2023-08-01T15:24:20;100214.20;;;30.30;91.31
36964;BME280;22878;48.616;35.326;2023-08-01T15:26:46;100217.63;;;30.26;91.34
36964;BME280;22878;48.616;35.326;2023-08-01T15:29:11;100217.09;;;30.20;92.15
36964;BME280;22878;48.616;35.326;2023-08-01T15:31:37;100226.23;;;30.14;92.97
36964;BME280;22878;48.616;35.326;2023-08-01T15:34:02;100228.52;;;29.94;93.31
36964;BME280;22878;48.616;35.326;2023-08-01T15:36:28;100231.02;;;29.78;95.13
36964;BME280;22878;48.616;35.326;2023-08-01T15:38:56;100235.63;;;29.71;95.87
36964;BME280;22878;48.616;35.326;2023-08-01T15:41:23;100236.35;;;29.67;96.70
36964;BME280;22878;48.616;35.326;2023-08-01T15:43:48;100237.27;;;29.60;97.76
36964;BME280;22878;48.616;35.326;2023-08-01T15:46:14;100239.98;;;29.56;98.76
36964;BME280;22878;48.616;35.326;2023-08-01T15:48:39;100239.35;;;29.52;99.29
36964;BME280;22878;48.616;35.326;2023-08-01T15:51:06;100236.73;;;29.45;99.38
36964;BME280;22878;48.616;35.326;2023-08-01T15:53:32;100227.61;;;29.34;99.69
36964;BME280;22878;48.616;35.326;2023-08-01T15:56:00;100220.23;;;29.25;99.96
36964;BME280;22878;48.616;35.326;2023-08-01T15:58:26;100211.41;;;29.10;100.00
36964;BME280;22878;48.616;35.326;2023-08-01T16:00:52;100211.05;;;28.93;100.00
36964;BME280;22878;48.616;35.326;2023-08-01T16:03:19;100212.30;;;28.76;100.00
36964;BME280;22878;48.616;35.326;2023-08-01T16:05:44;100207.92;;;28.69;100.00
36964;BME280;22878;48.616;35.326;2023-08-01T16:08:10;100207.03;;;28.61;100.00
36964;BME280;22878;48.616;35.326;2023-08-01T16:10:38;100204.79;;;28.51;100.00
36964;BME280;22878;48.616;35.326;2023-08-01T16:13:05;100212.06;;;28.45;100.00
36964;BME280;22878;48.616;35.326;2023-08-01T16:15:30;100219.52;;;28.37;100.00
36964;BME280;22878;48.616;35.326;2023-08-01T16:17:56;100227.08;;;28.25;100.00
36964;BME280;22878;48.616;35.326;2023-08-01T16:20:21;100230.70;;;28.18;100.00
36964;BME280;22878;48.616;35.326;2023-08-01T16:22:47;100239.73;;;28.08;100.00
36964;BME280;22878;48.616;35.326;2023-08-01T16:25:12;100238.71;;;27.94;100.00
36964;BME280;22878;48.616;35.326;2023-08-01T16:27:38;100238.48;;;27.82;100.00
36964;BME280;22878;48.616;35.326;2023-08-01T16:30:04;100236.33;;;27.71;100.00
36964;BME280;22878;48.616;35.326;2023-08-01T16:32:29;100235.85;;;27.60;100.00
36964;BME280;22878;48.616;35.326;2023-08-01T16:34:55;100232.88;;;27.53;100.00
36964;BME280;22878;48.616;35.326;2023-08-01T16:37:20;100236.64;;;27.48;100.00
36964;BME280;22878;48.616;35.326;2023-08-01T16:39:47;100234.23;;;27.46;100.00
36964;BME280;22878;48.616;35.326;2023-08-01T16:42:13;100235.50;;;27.44;100.00
36964;BME280;22878;48.616;35.326;2023-08-01T16:44:38;100236.88;;;27.39;100.00
36964;BME280;22878;48.616;35.326;2023-08-01T16:47:04;100241.36;;;27.28;100.00
36964;BME280;22878;48.616;35.326;2023-08-01T16:49:33;100237.27;;;27.14;100.00
36964;BME280;22878;48.616;35.326;2023-08-01T16:51:58;100235.45;;;26.99;100.00
36964;BME280;22878;48.616;35.326;2023-08-01T16:54:24;100238.52;;;26.88;100.00
36964;BME280;22878;48.616;35.326;2023-08-01T16:56:49;100240.29;;;26.77;100.00
36964;BME280;22878;48.616;35.326;2023-08-01T16:59:15;100239.61;;;26.67;100.00
36964;BME280;22878;48.616;35.326;2023-08-01T17:01:40;100242.81;;;26.56;100.00
36964;BME280;22878;48.616;35.326;2023-08-01T17:04:06;100245.13;;;26.46;100.00
36964;BME280;22878;48.616;35.326;2023-08-01T17:06:33;100248.40;;;26.37;100.00
36964;BME280;22878;48.616;35.326;2023-08-01T17:08:58;100243.63;;;26.28;100.00
36964;BME280;22878;48.616;35.326;2023-08-01T17:11:24;100245.73;;;26.21;100.00
36964;BME280;22878;48.616;35.326;2023-08-01T17:13:50;100247.96;;;26.10;100.00
36964;BME280;22878;48.616;35.326;2023-08-01T17:16:15;100249.77;;;25.97;100.00
36964;BME280;22878;48.616;35.326;2023-08-01T17:18:41;100247.55;;;25.86;100.00
36964;BME280;22878;48.616;35.326;2023-08-01T17:21:08;100243.05;;;25.72;100.00
36964;BME280;22878;48.616;35.326;2023-08-01T17:23:33;100244.41;;;25.58;100.00
36964;BME280;22878;48.616;35.326;2023-08-01T17:25:59;100250.88;;;25.44;100.00
36964;BME280;22878;48.616;35.326;2023-08-01T17:28:24;100251.48;;;25.32;100.00